sensor_id;sensor_type;location;lat;lon;timestamp;P1;durP1;ratioP1;P2;durP2;ratioP2
58864;SDS011;45702;52.982;6.658;2023-04-03T00:01:48;6.53;;;2.55;;
58864;SDS011;45702;52.982;6.658;2023-04-03T00:04:14;2.83;;;1.88;;
58864;SDS011;45702;52.982;6.658;2023-04-03T00:06:40;4.80;;;2.03;;
58864;SDS011;45702;52.982;6.658;2023-04-03T00:09:06;4.53;;;1.95;;
58864;SDS011;45702;52.982;6.658;2023-04-03T00:11:32;5.75;;;2.17;;
58864;SDS011;45702;52.982;6.658;2023-04-03T00:13:58;6.00;;;2.25;;
58864;SDS011;45702;52.982;6.658;2023-04-03T00:16:25;6.85;;;2.13;;
58864;SDS011;45702;52.982;6.658;2023-04-03T00:18:51;3.75;;;2.22;;
58864;SDS011;45702;52.982;6.658;2023-04-03T00:21:17;9.07;;;2.28;;
58864;SDS011;45702;52.982;6.658;2023-04-03T00:23:43;7.55;;;2.33;;
58864;SDS011;45702;52.982;6.658;2023-04-03T00:26:09;5.35;;;2.55;;
58864;SDS011;45702;52.982;6.658;2023-04-03T00:28:35;6.22;;;2.38;;
58864;SDS011;45702;52.982;6.658;2023-04-03T00:31:01;9.40;;;2.20;;
58864;SDS011;45702;52.982;6.658;2023-04-03T00:33:27;7.25;;;2.70;;
58864;SDS011;45702;52.982;6.658;2023-04-03T00:35:53;6.15;;;2.50;;
58864;SDS011;45702;52.982;6.658;2023-04-03T00:38:19;5.10;;;2.53;;
58864;SDS011;45702;52.982;6.658;2023-04-03T00:40:46;7.45;;;2.42;;
58864;SDS011;45702;52.982;6.658;2023-04-03T00:43:22;9.15;;;2.60;;
58864;SDS011;45702;52.982;6.658;2023-04-03T00:45:50;3.97;;;2.30;;
58864;SDS011;45702;52.982;6.658;2023-04-03T00:48:27;5.20;;;2.30;;
58864;SDS011;45702;52.982;6.658;2023-04-03T00:50:53;4.18;;;2.05;;
58864;SDS011;45702;52.982;6.658;2023-04-03T00:53:25;4.28;;;2.35;;
58864;SDS011;45702;52.982;6.658;2023-04-03T00:55:51;6.50;;;2.55;;
58864;SDS011;45702;52.982;6.658;2023-04-03T00:58:19;5.18;;;2.25;;
58864;SDS011;45702;52.982;6.658;2023-04-03T01:00:46;7.57;;;2.45;;
58864;SDS011;45702;52.982;6.658;2023-04-03T01:03:14;5.78;;;2.20;;
58864;SDS011;45702;52.982;6.658;2023-04-03T01:05:40;8.07;;;2.47;;
58864;SDS011;45702;52.982;6.658;2023-04-03T01:08:06;9.00;;;2.70;;
58864;SDS011;45702;52.982;6.658;2023-04-03T01:10:32;8.10;;;2.55;;
58864;SDS011;45702;52.982;6.658;2023-04-03T01:12:58;7.80;;;2.53;;
58864;SDS011;45702;52.982;6.658;2023-04-03T01:15:26;10.98;;;2.72;;
58864;SDS011;45702;52.982;6.658;2023-04-03T01:17:58;9.15;;;2.25;;
58864;SDS011;45702;52.982;6.658;2023-04-03T01:28:05;10.50;;;2.70;;
58864;SDS011;45702;52.982;6.658;2023-04-03T01:30:33;7.35;;;2.90;;
58864;SDS011;45702;52.982;6.658;2023-04-03T01:35:26;7.53;;;2.47;;
58864;SDS011;45702;52.982;6.658;2023-04-03T01:37:52;5.80;;;2.53;;
58864;SDS011;45702;52.982;6.658;2023-04-03T01:40:18;5.53;;;2.60;;
58864;SDS011;45702;52.982;6.658;2023-04-03T01:42:44;7.40;;;2.70;;
58864;SDS011;45702;52.982;6.658;2023-04-03T01:45:10;8.90;;;3.20;;
58864;SDS011;45702;52.982;6.658;2023-04-03T01:47:36;7.45;;;2.90;;
58864;SDS011;45702;52.982;6.658;2023-04-03T01:50:03;10.88;;;3.40;;
58864;SDS011;45702;52.982;6.658;2023-04-03T01:52:29;9.57;;;3.65;;
58864;SDS011;45702;52.982;6.658;2023-04-03T01:54:55;7.60;;;2.70;;
58864;SDS011;45702;52.982;6.658;2023-04-03T01:57:21;10.30;;;3.35;;
58864;SDS011;45702;52.982;6.658;2023-04-03T01:59:47;12.13;;;3.00;;
58864;SDS011;45702;52.982;6.658;2023-04-03T02:02:13;7.72;;;2.72;;
58864;SDS011;45702;52.982;6.658;2023-04-03T02:04:39;9.07;;;3.17;;
58864;SDS011;45702;52.982;6.658;2023-04-03T02:07:06;8.27;;;3.33;;
58864;SDS011;45702;52.982;6.658;2023-04-03T02:09:32;9.48;;;3.78;;
58864;SDS011;45702;52.982;6.658;2023-04-03T02:11:58;9.23;;;3.47;;
58864;SDS011;45702;52.982;6.658;2023-04-03T02:14:24;7.28;;;3.30;;
58864;SDS011;45702;52.982;6.658;2023-04-03T02:16:52;8.07;;;3.10;;
58864;SDS011;45702;52.982;6.658;2023-04-03T02:19:18;9.20;;;3.55;;
58864;SDS011;45702;52.982;6.658;2023-04-03T02:21:44;9.45;;;3.50;;
58864;SDS011;45702;52.982;6.658;2023-04-03T02:24:10;9.30;;;3.35;;
58864;SDS011;45702;52.982;6.658;2023-04-03T02:26:36;9.27;;;3.90;;
58864;SDS011;45702;52.982;6.658;2023-04-03T02:29:03;9.13;;;3.40;;
58864;SDS011;45702;52.982;6.658;2023-04-03T02:31:29;15.07;;;3.88;;
58864;SDS011;45702;52.982;6.658;2023-04-03T02:33:55;10.85;;;3.45;;
58864;SDS011;45702;52.982;6.658;2023-04-03T02:36:21;12.07;;;3.90;;
58864;SDS011;45702;52.982;6.658;2023-04-03T02:38:47;9.98;;;3.63;;
58864;SDS011;45702;52.982;6.658;2023-04-03T02:41:13;9.05;;;3.65;;
58864;SDS011;45702;52.982;6.658;2023-04-03T02:43:39;12.00;;;3.90;;
58864;SDS011;45702;52.982;6.658;2023-04-03T02:46:06;15.45;;;4.10;;
58864;SDS011;45702;52.982;6.658;2023-04-03T02:48:32;11.40;;;4.28;;
58864;SDS011;45702;52.982;6.658;2023-04-03T02:50:58;11.48;;;4.60;;
58864;SDS011;45702;52.982;6.658;2023-04-03T02:53:24;13.90;;;4.22;;
58864;SDS011;45702;52.982;6.658;2023-04-03T02:55:50;10.02;;;4.03;;
58864;SDS011;45702;52.982;6.658;2023-04-03T02:58:16;11.75;;;3.63;;
58864;SDS011;45702;52.982;6.658;2023-04-03T03:00:42;8.93;;;3.60;;
58864;SDS011;45702;52.982;6.658;2023-04-03T03:03:08;11.55;;;4.13;;
58864;SDS011;45702;52.982;6.658;2023-04-03T03:05:34;10.27;;;4.07;;
58864;SDS011;45702;52.982;6.658;2023-04-03T03:08:01;10.20;;;3.97;;
58864;SDS011;45702;52.982;6.658;2023-04-03T03:10:27;9.65;;;4.40;;
58864;SDS011;45702;52.982;6.658;2023-04-03T03:12:53;10.05;;;3.80;;
58864;SDS011;45702;52.982;6.658;2023-04-03T03:15:19;11.95;;;4.25;;
58864;SDS011;45702;52.982;6.658;2023-04-03T03:17:45;10.90;;;3.90;;
58864;SDS011;45702;52.982;6.658;2023-04-03T03:20:11;10.82;;;3.80;;
58864;SDS011;45702;52.982;6.658;2023-04-03T03:22:40;11.90;;;4.32;;
58864;SDS011;45702;52.982;6.658;2023-04-03T03:25:06;7.80;;;3.83;;
58864;SDS011;45702;52.982;6.658;2023-04-03T03:27:32;15.05;;;4.57;;
58864;SDS011;45702;52.982;6.658;2023-04-03T03:29:58;10.20;;;4.28;;
58864;SDS011;45702;52.982;6.658;2023-04-03T03:32:25;9.57;;;4.15;;
58864;SDS011;45702;52.982;6.658;2023-04-03T03:34:51;15.05;;;4.15;;
58864;SDS011;45702;52.982;6.658;2023-04-03T03:37:17;13.25;;;4.20;;
58864;SDS011;45702;52.982;6.658;2023-04-03T03:39:43;13.23;;;4.60;;
58864;SDS011;45702;52.982;6.658;2023-04-03T03:42:09;12.18;;;4.45;;
58864;SDS011;45702;52.982;6.658;2023-04-03T03:44:36;11.55;;;4.40;;
58864;SDS011;45702;52.982;6.658;2023-04-03T03:47:02;9.38;;;4.07;;
58864;SDS011;45702;52.982;6.658;2023-04-03T03:49:28;14.48;;;4.43;;
58864;SDS011;45702;52.982;6.658;2023-04-03T03:51:54;10.57;;;4.22;;
58864;SDS011;45702;52.982;6.658;2023-04-03T03:54:20;13.05;;;4.35;;
58864;SDS011;45702;52.982;6.658;2023-04-03T03:56:46;14.35;;;4.80;;
58864;SDS011;45702;52.982;6.658;2023-04-03T03:59:12;12.07;;;4.50;;
58864;SDS011;45702;52.982;6.658;2023-04-03T04:01:39;9.20;;;4.22;;
58864;SDS011;45702;52.982;6.658;2023-04-03T04:04:05;10.77;;;4.35;;
58864;SDS011;45702;52.982;6.658;2023-04-03T04:06:31;10.27;;;4.55;;
58864;SDS011;45702;52.982;6.658;2023-04-03T04:08:57;15.88;;;4.88;;
58864;SDS011;45702;52.982;6.658;2023-04-03T04:11:23;13.27;;;5.32;;
58864;SDS011;45702;52.982;6.658;2023-04-03T04:13:49;11.77;;;4.90;;
58864;SDS011;45702;52.982;6.658;2023-04-03T04:16:15;9.40;;;4.78;;
58864;SDS011;45702;52.982;6.658;2023-04-03T04:18:42;18.02;;;5.32;;
58864;SDS011;45702;52.982;6.658;2023-04-03T04:21:08;12.15;;;5.10;;
58864;SDS011;45702;52.982;6.658;2023-04-03T04:23:34;11.93;;;4.88;;
58864;SDS011;45702;52.982;6.658;2023-04-03T04:26:00;15.07;;;5.50;;
58864;SDS011;45702;52.982;6.658;2023-04-03T04:28:26;15.85;;;5.30;;
58864;SDS011;45702;52.982;6.658;2023-04-03T04:30:52;19.98;;;5.40;;
58864;SDS011;45702;52.982;6.658;2023-04-03T04:33:18;13.20;;;4.90;;
58864;SDS011;45702;52.982;6.658;2023-04-03T04:35:46;19.55;;;5.88;;
58864;SDS011;45702;52.982;6.658;2023-04-03T04:38:12;15.73;;;5.40;;
58864;SDS011;45702;52.982;6.658;2023-04-03T04:40:38;15.45;;;5.90;;
58864;SDS011;45702;52.982;6.658;2023-04-03T04:43:05;17.95;;;6.18;;
58864;SDS011;45702;52.982;6.658;2023-04-03T04:45:31;13.40;;;6.00;;
58864;SDS011;45702;52.982;6.658;2023-04-03T04:48:00;16.20;;;5.88;;
58864;SDS011;45702;52.982;6.658;2023-04-03T04:50:26;21.63;;;6.40;;
58864;SDS011;45702;52.982;6.658;2023-04-03T04:52:52;22.67;;;6.55;;
58864;SDS011;45702;52.982;6.658;2023-04-03T04:55:18;20.92;;;6.38;;
58864;SDS011;45702;52.982;6.658;2023-04-03T04:57:45;17.92;;;7.40;;
58864;SDS011;45702;52.982;6.658;2023-04-03T05:00:11;21.83;;;7.03;;
58864;SDS011;45702;52.982;6.658;2023-04-03T05:02:38;13.73;;;7.15;;
58864;SDS011;45702;52.982;6.658;2023-04-03T05:05:04;20.63;;;7.85;;
58864;SDS011;45702;52.982;6.658;2023-04-03T05:07:30;21.40;;;7.40;;
58864;SDS011;45702;52.982;6.658;2023-04-03T05:09:56;21.70;;;7.53;;
58864;SDS011;45702;52.982;6.658;2023-04-03T05:12:22;19.90;;;7.93;;
58864;SDS011;45702;52.982;6.658;2023-04-03T05:14:48;15.30;;;7.30;;
58864;SDS011;45702;52.982;6.658;2023-04-03T05:17:14;20.40;;;8.15;;
58864;SDS011;45702;52.982;6.658;2023-04-03T05:19:40;22.63;;;8.45;;
58864;SDS011;45702;52.982;6.658;2023-04-03T05:22:06;28.45;;;10.38;;
58864;SDS011;45702;52.982;6.658;2023-04-03T05:24:32;31.50;;;11.40;;
58864;SDS011;45702;52.982;6.658;2023-04-03T05:26:58;28.75;;;10.60;;
58864;SDS011;45702;52.982;6.658;2023-04-03T05:29:24;37.13;;;12.38;;
58864;SDS011;45702;52.982;6.658;2023-04-03T05:31:51;27.88;;;10.15;;
58864;SDS011;45702;52.982;6.658;2023-04-03T05:34:17;25.55;;;9.88;;
58864;SDS011;45702;52.982;6.658;2023-04-03T05:36:43;24.20;;;9.48;;
58864;SDS011;45702;52.982;6.658;2023-04-03T05:39:09;23.55;;;8.98;;
58864;SDS011;45702;52.982;6.658;2023-04-03T05:41:35;24.20;;;10.13;;
58864;SDS011;45702;52.982;6.658;2023-04-03T05:44:01;25.15;;;9.95;;
58864;SDS011;45702;52.982;6.658;2023-04-03T05:46:27;24.92;;;9.00;;
58864;SDS011;45702;52.982;6.658;2023-04-03T05:48:53;22.38;;;9.52;;
58864;SDS011;45702;52.982;6.658;2023-04-03T05:51:24;24.70;;;10.32;;
58864;SDS011;45702;52.982;6.658;2023-04-03T05:53:52;23.85;;;9.63;;
58864;SDS011;45702;52.982;6.658;2023-04-03T05:56:20;25.00;;;10.07;;
58864;SDS011;45702;52.982;6.658;2023-04-03T05:58:46;25.20;;;10.13;;
58864;SDS011;45702;52.982;6.658;2023-04-03T06:01:12;23.42;;;9.80;;
58864;SDS011;45702;52.982;6.658;2023-04-03T06:03:38;20.23;;;9.70;;
58864;SDS011;45702;52.982;6.658;2023-04-03T06:06:05;22.63;;;9.18;;
58864;SDS011;45702;52.982;6.658;2023-04-03T06:08:33;18.77;;;9.68;;
58864;SDS011;45702;52.982;6.658;2023-04-03T06:11:00;27.50;;;9.48;;
58864;SDS011;45702;52.982;6.658;2023-04-03T06:13:27;26.20;;;10.77;;
58864;SDS011;45702;52.982;6.658;2023-04-03T06:15:53;26.08;;;9.45;;
58864;SDS011;45702;52.982;6.658;2023-04-03T06:18:20;25.25;;;9.45;;
58864;SDS011;45702;52.982;6.658;2023-04-03T06:20:46;26.10;;;9.88;;
58864;SDS011;45702;52.982;6.658;2023-04-03T06:23:12;24.75;;;9.20;;
58864;SDS011;45702;52.982;6.658;2023-04-03T06:25:38;24.42;;;9.63;;
58864;SDS011;45702;52.982;6.658;2023-04-03T06:28:04;29.42;;;9.40;;
58864;SDS011;45702;52.982;6.658;2023-04-03T06:30:30;25.60;;;9.27;;
58864;SDS011;45702;52.982;6.658;2023-04-03T06:32:56;22.10;;;8.55;;
58864;SDS011;45702;52.982;6.658;2023-04-03T06:35:24;22.80;;;8.63;;
58864;SDS011;45702;52.982;6.658;2023-04-03T06:37:51;18.38;;;8.27;;
58864;SDS011;45702;52.982;6.658;2023-04-03T06:40:22;20.33;;;8.15;;
58864;SDS011;45702;52.982;6.658;2023-04-03T06:42:48;20.02;;;7.60;;
58864;SDS011;45702;52.982;6.658;2023-04-03T06:45:14;17.55;;;6.78;;
58864;SDS011;45702;52.982;6.658;2023-04-03T06:47:41;17.73;;;6.78;;
58864;SDS011;45702;52.982;6.658;2023-04-03T06:50:07;17.17;;;6.85;;
58864;SDS011;45702;52.982;6.658;2023-04-03T06:52:34;17.27;;;6.57;;
58864;SDS011;45702;52.982;6.658;2023-04-03T06:55:00;20.38;;;7.60;;
58864;SDS011;45702;52.982;6.658;2023-04-03T06:57:26;15.73;;;6.22;;
58864;SDS011;45702;52.982;6.658;2023-04-03T06:59:52;13.85;;;6.22;;
58864;SDS011;45702;52.982;6.658;2023-04-03T07:02:18;20.25;;;7.13;;
58864;SDS011;45702;52.982;6.658;2023-04-03T07:04:45;15.20;;;6.57;;
58864;SDS011;45702;52.982;6.658;2023-04-03T07:07:11;20.05;;;6.32;;
58864;SDS011;45702;52.982;6.658;2023-04-03T07:09:37;14.68;;;6.20;;
58864;SDS011;45702;52.982;6.658;2023-04-03T07:12:03;15.73;;;6.07;;
58864;SDS011;45702;52.982;6.658;2023-04-03T07:14:30;16.00;;;5.80;;
58864;SDS011;45702;52.982;6.658;2023-04-03T07:16:56;15.70;;;5.30;;
58864;SDS011;45702;52.982;6.658;2023-04-03T07:19:22;14.40;;;5.20;;
58864;SDS011;45702;52.982;6.658;2023-04-03T07:21:49;11.40;;;4.50;;
58864;SDS011;45702;52.982;6.658;2023-04-03T07:24:15;18.08;;;5.05;;
58864;SDS011;45702;52.982;6.658;2023-04-03T07:26:41;11.80;;;4.43;;
58864;SDS011;45702;52.982;6.658;2023-04-03T07:29:08;12.85;;;4.72;;
58864;SDS011;45702;52.982;6.658;2023-04-03T07:31:34;7.50;;;4.13;;
58864;SDS011;45702;52.982;6.658;2023-04-03T07:34:00;12.63;;;4.20;;
58864;SDS011;45702;52.982;6.658;2023-04-03T07:36:26;8.13;;;3.97;;
58864;SDS011;45702;52.982;6.658;2023-04-03T07:38:52;25.55;;;4.47;;
58864;SDS011;45702;52.982;6.658;2023-04-03T07:41:18;12.32;;;3.92;;
58864;SDS011;45702;52.982;6.658;2023-04-03T07:43:45;8.10;;;3.17;;
58864;SDS011;45702;52.982;6.658;2023-04-03T07:46:12;9.75;;;3.70;;
58864;SDS011;45702;52.982;6.658;2023-04-03T07:48:38;9.90;;;3.75;;
58864;SDS011;45702;52.982;6.658;2023-04-03T07:51:04;9.27;;;3.55;;
58864;SDS011;45702;52.982;6.658;2023-04-03T07:53:30;9.80;;;3.50;;
58864;SDS011;45702;52.982;6.658;2023-04-03T07:56:01;11.63;;;3.60;;
58864;SDS011;45702;52.982;6.658;2023-04-03T07:58:28;10.60;;;3.53;;
58864;SDS011;45702;52.982;6.658;2023-04-03T08:00:54;12.13;;;3.88;;
58864;SDS011;45702;52.982;6.658;2023-04-03T08:03:21;9.82;;;3.85;;
58864;SDS011;45702;52.982;6.658;2023-04-03T08:05:48;11.50;;;3.30;;
58864;SDS011;45702;52.982;6.658;2023-04-03T08:08:17;10.43;;;4.30;;
58864;SDS011;45702;52.982;6.658;2023-04-03T08:10:43;8.32;;;3.30;;
58864;SDS011;45702;52.982;6.658;2023-04-03T08:13:10;7.45;;;3.17;;
58864;SDS011;45702;52.982;6.658;2023-04-03T08:15:36;8.60;;;3.22;;
58864;SDS011;45702;52.982;6.658;2023-04-03T08:18:02;6.93;;;3.08;;
58864;SDS011;45702;52.982;6.658;2023-04-03T08:20:28;8.73;;;3.28;;
58864;SDS011;45702;52.982;6.658;2023-04-03T08:22:54;7.93;;;2.90;;
58864;SDS011;45702;52.982;6.658;2023-04-03T08:25:20;12.02;;;2.92;;
58864;SDS011;45702;52.982;6.658;2023-04-03T08:27:46;8.05;;;2.83;;
58864;SDS011;45702;52.982;6.658;2023-04-03T08:30:13;5.60;;;2.42;;
58864;SDS011;45702;52.982;6.658;2023-04-03T08:32:39;7.13;;;2.40;;
58864;SDS011;45702;52.982;6.658;2023-04-03T08:35:07;5.68;;;2.30;;
58864;SDS011;45702;52.982;6.658;2023-04-03T08:37:36;7.60;;;2.20;;
58864;SDS011;45702;52.982;6.658;2023-04-03T08:40:03;9.23;;;2.60;;
58864;SDS011;45702;52.982;6.658;2023-04-03T08:45:01;4.50;;;2.30;;
58864;SDS011;45702;52.982;6.658;2023-04-03T08:47:30;5.25;;;2.10;;
58864;SDS011;45702;52.982;6.658;2023-04-03T08:50:02;7.22;;;2.30;;
58864;SDS011;45702;52.982;6.658;2023-04-03T08:52:38;6.22;;;2.40;;
58864;SDS011;45702;52.982;6.658;2023-04-03T08:55:07;8.07;;;2.40;;
58864;SDS011;45702;52.982;6.658;2023-04-03T08:57:34;7.47;;;2.08;;
58864;SDS011;45702;52.982;6.658;2023-04-03T09:00:05;7.32;;;2.25;;
58864;SDS011;45702;52.982;6.658;2023-04-03T09:02:49;5.50;;;2.10;;
58864;SDS011;45702;52.982;6.658;2023-04-03T09:05:20;5.68;;;1.95;;
58864;SDS011;45702;52.982;6.658;2023-04-03T09:07:58;6.18;;;2.22;;
58864;SDS011;45702;52.982;6.658;2023-04-03T09:10:29;6.32;;;2.00;;
58864;SDS011;45702;52.982;6.658;2023-04-03T09:13:41;3.10;;;1.92;;
58864;SDS011;45702;52.982;6.658;2023-04-03T09:15:47;4.53;;;2.22;;
58864;SDS011;45702;52.982;6.658;2023-04-03T09:18:21;6.22;;;2.20;;
58864;SDS011;45702;52.982;6.658;2023-04-03T09:25:53;4.97;;;2.00;;
58864;SDS011;45702;52.982;6.658;2023-04-03T09:28:23;5.18;;;1.90;;
58864;SDS011;45702;52.982;6.658;2023-04-03T09:30:49;6.03;;;1.95;;
58864;SDS011;45702;52.982;6.658;2023-04-03T09:33:15;4.65;;;1.60;;
58864;SDS011;45702;52.982;6.658;2023-04-03T09:35:42;3.92;;;1.70;;
58864;SDS011;45702;52.982;6.658;2023-04-03T09:40:38;5.05;;;1.90;;
58864;SDS011;45702;52.982;6.658;2023-04-03T09:45:43;6.10;;;2.00;;
58864;SDS011;45702;52.982;6.658;2023-04-03T09:51:01;4.13;;;1.70;;
58864;SDS011;45702;52.982;6.658;2023-04-03T09:55:54;6.95;;;1.60;;
58864;SDS011;45702;52.982;6.658;2023-04-03T09:58:27;5.95;;;1.40;;
58864;SDS011;45702;52.982;6.658;2023-04-03T10:00:58;4.25;;;1.40;;
58864;SDS011;45702;52.982;6.658;2023-04-03T10:05:54;4.75;;;1.70;;
58864;SDS011;45702;52.982;6.658;2023-04-03T10:08:22;5.47;;;1.40;;
58864;SDS011;45702;52.982;6.658;2023-04-03T10:11:04;4.68;;;1.50;;
58864;SDS011;45702;52.982;6.658;2023-04-03T10:13:31;4.00;;;1.40;;
58864;SDS011;45702;52.982;6.658;2023-04-03T10:18:46;2.95;;;1.30;;
58864;SDS011;45702;52.982;6.658;2023-04-03T10:21:15;5.45;;;1.52;;
58864;SDS011;45702;52.982;6.658;2023-04-03T10:23:48;5.00;;;1.55;;
58864;SDS011;45702;52.982;6.658;2023-04-03T10:26:23;3.88;;;1.40;;
58864;SDS011;45702;52.982;6.658;2023-04-03T10:44:52;4.07;;;1.50;;
58864;SDS011;45702;52.982;6.658;2023-04-03T10:47:24;4.07;;;1.40;;
58864;SDS011;45702;52.982;6.658;2023-04-03T10:52:43;3.70;;;1.50;;
58864;SDS011;45702;52.982;6.658;2023-04-03T10:57:39;4.20;;;1.42;;
58864;SDS011;45702;52.982;6.658;2023-04-03T11:00:16;2.80;;;1.10;;
58864;SDS011;45702;52.982;6.658;2023-04-03T11:02:54;4.28;;;1.33;;
58864;SDS011;45702;52.982;6.658;2023-04-03T11:10:53;2.78;;;1.20;;
58864;SDS011;45702;52.982;6.658;2023-04-03T11:13:22;8.88;;;1.50;;
58864;SDS011;45702;52.982;6.658;2023-04-03T11:15:51;3.80;;;1.27;;
58864;SDS011;45702;52.982;6.658;2023-04-03T11:18:22;5.95;;;1.58;;
58864;SDS011;45702;52.982;6.658;2023-04-03T11:20:53;4.05;;;1.45;;
58864;SDS011;45702;52.982;6.658;2023-04-03T11:23:26;5.15;;;1.65;;
58864;SDS011;45702;52.982;6.658;2023-04-03T11:25:53;4.40;;;1.70;;
58864;SDS011;45702;52.982;6.658;2023-04-03T11:28:20;6.47;;;1.63;;
58864;SDS011;45702;52.982;6.658;2023-04-03T11:36:07;4.63;;;1.50;;
58864;SDS011;45702;52.982;6.658;2023-04-03T11:38:38;4.65;;;1.80;;
58864;SDS011;45702;52.982;6.658;2023-04-03T11:41:08;3.95;;;1.70;;
58864;SDS011;45702;52.982;6.658;2023-04-03T11:43:39;4.65;;;1.50;;
58864;SDS011;45702;52.982;6.658;2023-04-03T11:46:06;4.50;;;1.67;;
58864;SDS011;45702;52.982;6.658;2023-04-03T11:53:28;4.53;;;1.60;;
58864;SDS011;45702;52.982;6.658;2023-04-03T11:58:25;4.45;;;1.50;;
58864;SDS011;45702;52.982;6.658;2023-04-03T12:00:56;5.45;;;1.77;;
58864;SDS011;45702;52.982;6.658;2023-04-03T12:05:52;4.32;;;1.60;;
58864;SDS011;45702;52.982;6.658;2023-04-03T12:08:25;4.47;;;1.60;;
58864;SDS011;45702;52.982;6.658;2023-04-03T12:16:21;5.03;;;1.65;;
58864;SDS011;45702;52.982;6.658;2023-04-03T12:27:09;7.30;;;1.75;;
58864;SDS011;45702;52.982;6.658;2023-04-03T12:29:32;4.97;;;1.52;;
58864;SDS011;45702;52.982;6.658;2023-04-03T12:34:55;5.68;;;1.92;;
58864;SDS011;45702;52.982;6.658;2023-04-03T12:45:20;5.03;;;1.73;;
58864;SDS011;45702;52.982;6.658;2023-04-03T12:47:47;5.07;;;1.80;;
58864;SDS011;45702;52.982;6.658;2023-04-03T12:50:30;4.03;;;1.90;;
58864;SDS011;45702;52.982;6.658;2023-04-03T12:53:04;5.78;;;1.92;;
58864;SDS011;45702;52.982;6.658;2023-04-03T12:55:31;4.55;;;1.63;;
58864;SDS011;45702;52.982;6.658;2023-04-03T12:58:12;5.15;;;2.05;;
58864;SDS011;45702;52.982;6.658;2023-04-03T13:00:40;4.28;;;1.80;;
58864;SDS011;45702;52.982;6.658;2023-04-03T13:03:06;4.18;;;1.63;;
58864;SDS011;45702;52.982;6.658;2023-04-03T13:08:12;2.88;;;1.60;;
58864;SDS011;45702;52.982;6.658;2023-04-03T13:10:53;4.20;;;1.70;;
58864;SDS011;45702;52.982;6.658;2023-04-03T13:13:20;6.95;;;1.70;;
58864;SDS011;45702;52.982;6.658;2023-04-03T13:15:48;4.70;;;1.90;;
58864;SDS011;45702;52.982;6.658;2023-04-03T13:18:48;3.92;;;1.70;;
58864;SDS011;45702;52.982;6.658;2023-04-03T13:21:10;4.93;;;2.08;;
58864;SDS011;45702;52.982;6.658;2023-04-03T13:23:38;5.88;;;1.95;;
58864;SDS011;45702;52.982;6.658;2023-04-03T13:26:05;4.60;;;1.85;;
58864;SDS011;45702;52.982;6.658;2023-04-03T13:28:31;3.60;;;1.77;;
58864;SDS011;45702;52.982;6.658;2023-04-03T13:33:32;6.85;;;1.95;;
58864;SDS011;45702;52.982;6.658;2023-04-03T13:36:06;5.97;;;1.90;;
58864;SDS011;45702;52.982;6.658;2023-04-03T13:38:33;4.68;;;1.80;;
58864;SDS011;45702;52.982;6.658;2023-04-03T13:41:03;4.90;;;1.70;;
58864;SDS011;45702;52.982;6.658;2023-04-03T13:43:31;7.03;;;1.90;;
58864;SDS011;45702;52.982;6.658;2023-04-03T13:46:05;6.78;;;2.20;;
58864;SDS011;45702;52.982;6.658;2023-04-03T13:48:36;4.95;;;2.00;;
58864;SDS011;45702;52.982;6.658;2023-04-03T13:51:12;4.05;;;2.10;;
58864;SDS011;45702;52.982;6.658;2023-04-03T13:53:45;7.50;;;2.03;;
58864;SDS011;45702;52.982;6.658;2023-04-03T13:58:54;5.50;;;1.88;;
58864;SDS011;45702;52.982;6.658;2023-04-03T14:01:21;5.78;;;1.85;;
58864;SDS011;45702;52.982;6.658;2023-04-03T14:04:01;5.57;;;2.00;;
58864;SDS011;45702;52.982;6.658;2023-04-03T14:06:27;4.03;;;1.73;;
58864;SDS011;45702;52.982;6.658;2023-04-03T14:08:54;6.30;;;2.30;;
58864;SDS011;45702;52.982;6.658;2023-04-03T14:11:29;4.85;;;2.10;;
58864;SDS011;45702;52.982;6.658;2023-04-03T14:13:57;4.72;;;2.10;;
58864;SDS011;45702;52.982;6.658;2023-04-03T14:16:25;6.90;;;2.10;;
58864;SDS011;45702;52.982;6.658;2023-04-03T14:18:54;5.63;;;1.90;;
58864;SDS011;45702;52.982;6.658;2023-04-03T14:21:21;5.47;;;1.60;;
58864;SDS011;45702;52.982;6.658;2023-04-03T14:23:47;3.63;;;1.63;;
58864;SDS011;45702;52.982;6.658;2023-04-03T14:26:14;4.00;;;1.50;;
58864;SDS011;45702;52.982;6.658;2023-04-03T14:28:42;3.85;;;1.60;;
58864;SDS011;45702;52.982;6.658;2023-04-03T14:31:10;3.58;;;1.77;;
58864;SDS011;45702;52.982;6.658;2023-04-03T14:33:36;6.03;;;1.90;;
58864;SDS011;45702;52.982;6.658;2023-04-03T14:38:38;6.05;;;1.70;;
58864;SDS011;45702;52.982;6.658;2023-04-03T14:41:04;3.85;;;1.50;;
58864;SDS011;45702;52.982;6.658;2023-04-03T14:43:30;4.15;;;1.60;;
58864;SDS011;45702;52.982;6.658;2023-04-03T14:45:57;3.78;;;1.67;;
58864;SDS011;45702;52.982;6.658;2023-04-03T14:48:24;6.43;;;2.30;;
58864;SDS011;45702;52.982;6.658;2023-04-03T14:50:52;7.22;;;2.00;;
58864;SDS011;45702;52.982;6.658;2023-04-03T14:53:18;4.78;;;2.53;;
58864;SDS011;45702;52.982;6.658;2023-04-03T14:55:48;2.95;;;1.58;;
58864;SDS011;45702;52.982;6.658;2023-04-03T14:58:15;3.78;;;1.70;;
58864;SDS011;45702;52.982;6.658;2023-04-03T15:00:42;5.13;;;1.80;;
58864;SDS011;45702;52.982;6.658;2023-04-03T15:03:18;5.50;;;2.13;;
58864;SDS011;45702;52.982;6.658;2023-04-03T15:05:45;5.07;;;1.85;;
58864;SDS011;45702;52.982;6.658;2023-04-03T15:08:19;4.13;;;1.80;;
58864;SDS011;45702;52.982;6.658;2023-04-03T15:10:45;4.50;;;2.05;;
58864;SDS011;45702;52.982;6.658;2023-04-03T15:13:17;5.82;;;1.77;;
58864;SDS011;45702;52.982;6.658;2023-04-03T15:15:43;4.65;;;1.90;;
58864;SDS011;45702;52.982;6.658;2023-04-03T15:18:23;5.22;;;1.85;;
58864;SDS011;45702;52.982;6.658;2023-04-03T15:20:51;7.25;;;2.08;;
58864;SDS011;45702;52.982;6.658;2023-04-03T15:23:17;5.95;;;1.80;;
58864;SDS011;45702;52.982;6.658;2023-04-03T15:25:44;5.85;;;2.15;;
58864;SDS011;45702;52.982;6.658;2023-04-03T15:28:21;3.72;;;1.77;;
58864;SDS011;45702;52.982;6.658;2023-04-03T15:30:47;4.05;;;1.67;;
58864;SDS011;45702;52.982;6.658;2023-04-03T15:33:13;6.22;;;1.90;;
58864;SDS011;45702;52.982;6.658;2023-04-03T15:35:40;3.53;;;1.33;;
58864;SDS011;45702;52.982;6.658;2023-04-03T15:38:06;3.90;;;1.65;;
58864;SDS011;45702;52.982;6.658;2023-04-03T15:40:33;5.35;;;1.58;;
58864;SDS011;45702;52.982;6.658;2023-04-03T15:42:59;4.60;;;1.58;;
58864;SDS011;45702;52.982;6.658;2023-04-03T15:45:25;4.97;;;2.60;;
58864;SDS011;45702;52.982;6.658;2023-04-03T15:47:54;4.97;;;1.95;;
58864;SDS011;45702;52.982;6.658;2023-04-03T15:50:20;6.25;;;2.17;;
58864;SDS011;45702;52.982;6.658;2023-04-03T15:52:52;3.53;;;1.50;;
58864;SDS011;45702;52.982;6.658;2023-04-03T15:55:23;5.50;;;2.30;;
58864;SDS011;45702;52.982;6.658;2023-04-03T15:57:50;5.07;;;1.90;;
58864;SDS011;45702;52.982;6.658;2023-04-03T16:00:16;3.80;;;1.50;;
58864;SDS011;45702;52.982;6.658;2023-04-03T16:02:44;4.38;;;1.63;;
58864;SDS011;45702;52.982;6.658;2023-04-03T16:05:11;3.80;;;1.70;;
58864;SDS011;45702;52.982;6.658;2023-04-03T16:07:40;4.97;;;2.10;;
58864;SDS011;45702;52.982;6.658;2023-04-03T16:10:07;3.47;;;1.40;;
58864;SDS011;45702;52.982;6.658;2023-04-03T16:12:34;4.13;;;1.63;;
58864;SDS011;45702;52.982;6.658;2023-04-03T16:15:00;3.50;;;1.45;;
58864;SDS011;45702;52.982;6.658;2023-04-03T16:17:26;2.60;;;1.48;;
58864;SDS011;45702;52.982;6.658;2023-04-03T16:19:56;2.85;;;1.60;;
58864;SDS011;45702;52.982;6.658;2023-04-03T16:22:23;2.80;;;1.55;;
58864;SDS011;45702;52.982;6.658;2023-04-03T16:24:49;3.08;;;1.48;;
58864;SDS011;45702;52.982;6.658;2023-04-03T16:27:16;3.50;;;1.60;;
58864;SDS011;45702;52.982;6.658;2023-04-03T16:29:42;5.55;;;1.83;;
58864;SDS011;45702;52.982;6.658;2023-04-03T16:32:08;4.53;;;1.67;;
58864;SDS011;45702;52.982;6.658;2023-04-03T16:34:34;3.13;;;1.40;;
58864;SDS011;45702;52.982;6.658;2023-04-03T16:37:00;3.05;;;1.65;;